createdAt,value
2023-04-25T00:01:58.816Z,4.00
2023-04-25T00:04:26.802Z,4.18
2023-04-25T00:06:55.272Z,3.63
2023-04-25T00:09:23.040Z,3.30
2023-04-25T00:11:50.244Z,4.88
2023-04-25T00:14:18.008Z,4.63
2023-04-25T00:16:45.240Z,5.25
2023-04-25T00:19:12.427Z,4.83
2023-04-25T00:21:41.649Z,5.35
2023-04-25T00:24:08.910Z,5.05
2023-04-25T00:26:37.067Z,6.03
2023-04-25T00:29:04.287Z,5.75
2023-04-25T00:31:31.745Z,5.77
2023-04-25T00:33:58.721Z,5.50
2023-04-25T00:36:26.892Z,5.47
2023-04-25T00:38:55.579Z,5.75
2023-04-25T00:41:22.726Z,5.78
2023-04-25T00:43:50.968Z,6.33
2023-04-25T00:46:18.216Z,5.93
2023-04-25T00:48:45.326Z,5.97
2023-04-25T00:51:17.539Z,6.35
2023-04-25T00:53:45.932Z,6.28
2023-04-25T00:56:13.447Z,5.87
2023-04-25T00:58:42.463Z,6.05
2023-04-25T01:01:11.935Z,6.65
2023-04-25T01:03:44.092Z,5.95
2023-04-25T01:06:11.947Z,6.80
2023-04-25T01:08:40.409Z,6.10
2023-04-25T01:11:08.131Z,5.22
2023-04-25T01:13:36.027Z,6.13
2023-04-25T01:16:04.147Z,6.15
2023-04-25T01:18:31.175Z,6.85
2023-04-25T01:21:07.809Z,6.03
2023-04-25T01:23:35.521Z,6.07
2023-04-25T01:26:02.760Z,5.60
2023-04-25T01:28:30.107Z,5.15
2023-04-25T01:30:58.055Z,5.90
2023-04-25T01:33:25.722Z,5.90
2023-04-25T01:35:52.992Z,6.05
2023-04-25T01:38:20.927Z,6.28
2023-04-25T01:40:48.288Z,5.40
2023-04-25T01:43:18.333Z,5.10
2023-04-25T01:45:48.650Z,5.20
2023-04-25T01:48:15.840Z,4.90
2023-04-25T01:50:44.955Z,5.10
2023-04-25T01:53:14.657Z,5.13
2023-04-25T01:55:43.961Z,5.18
2023-04-25T01:58:14.491Z,4.80
2023-04-25T02:01:14.133Z,5.18
2023-04-25T02:03:47.263Z,5.30
2023-04-25T02:06:26.856Z,5.45
2023-04-25T02:08:56.718Z,4.78
2023-04-25T02:11:23.754Z,4.13
2023-04-25T02:14:22.813Z,4.20
2023-04-25T02:17:00.444Z,4.10
2023-04-25T02:19:27.673Z,3.95
2023-04-25T02:21:54.825Z,4.22
2023-04-25T02:24:21.853Z,3.77
2023-04-25T02:26:50.333Z,4.20
2023-04-25T02:29:17.629Z,3.90
2023-04-25T02:31:44.661Z,3.70
2023-04-25T02:34:11.825Z,4.15
2023-04-25T02:36:39.446Z,4.10
2023-04-25T02:39:06.630Z,4.95
2023-04-25T02:41:33.563Z,4.72
2023-04-25T02:44:00.493Z,3.70
2023-04-25T02:46:38.366Z,4.03
2023-04-25T02:49:06.872Z,4.87
2023-04-25T02:51:35.256Z,3.95
2023-04-25T02:54:02.436Z,4.47
2023-04-25T02:56:30.355Z,4.65
2023-04-25T02:58:57.708Z,4.70
2023-04-25T03:01:24.860Z,4.57
2023-04-25T03:03:52.225Z,5.03
2023-04-25T03:06:19.424Z,5.68
2023-04-25T03:08:46.368Z,5.22
2023-04-25T03:11:13.466Z,5.53
2023-04-25T03:13:42.506Z,5.07
2023-04-25T03:16:11.042Z,4.00
2023-04-25T03:18:38.093Z,4.00
2023-04-25T03:21:05.109Z,3.88
2023-04-25T03:23:32.282Z,3.75
2023-04-25T03:25:59.351Z,3.63
2023-04-25T03:28:26.538Z,4.07
2023-04-25T03:30:55.161Z,4.13
2023-04-25T03:33:24.149Z,3.78
2023-04-25T03:35:51.323Z,3.90
2023-04-25T03:38:19.175Z,4.13
2023-04-25T03:40:46.472Z,5.07
2023-04-25T03:43:32.285Z,4.70
2023-04-25T03:46:04.488Z,4.13
2023-04-25T03:48:31.486Z,4.78
2023-04-25T03:50:59.589Z,4.53
2023-04-25T03:53:26.977Z,4.60
2023-04-25T03:56:17.235Z,4.70
2023-04-25T03:58:46.947Z,4.45
2023-04-25T04:01:15.885Z,5.35
2023-04-25T04:03:43.196Z,5.57
2023-04-25T04:06:10.578Z,4.95
2023-04-25T04:08:41.084Z,6.00
2023-04-25T04:11:09.582Z,5.40
2023-04-25T04:13:36.535Z,5.82
2023-04-25T04:16:05.332Z,5.83
2023-04-25T04:18:34.412Z,5.95
2023-04-25T04:21:02.605Z,5.80
2023-04-25T04:23:32.464Z,5.22
2023-04-25T04:26:00.876Z,4.85
2023-04-25T04:28:46.301Z,5.30
2023-04-25T04:31:23.547Z,4.70
2023-04-25T04:33:52.185Z,5.47
2023-04-25T04:36:24.012Z,5.00
2023-04-25T04:38:51.795Z,5.05
2023-04-25T04:41:29.703Z,5.50
2023-04-25T04:44:16.567Z,5.57
2023-04-25T04:46:51.730Z,5.20
2023-04-25T04:49:30.803Z,4.93
2023-04-25T04:52:21.469Z,7.97
2023-04-25T04:55:09.473Z,5.40
2023-04-25T04:57:54.136Z,5.53
2023-04-25T05:00:31.748Z,5.53
2023-04-25T05:03:13.484Z,5.25
2023-04-25T05:05:51.557Z,5.07
2023-04-25T05:08:32.333Z,4.90
2023-04-25T05:11:17.882Z,5.00
2023-04-25T05:13:56.691Z,5.55
2023-04-25T05:16:46.400Z,4.28
2023-04-25T05:19:42.580Z,4.95
2023-04-25T05:22:31.381Z,4.50
2023-04-25T05:25:16.800Z,4.50
2023-04-25T05:27:46.526Z,4.60
2023-04-25T05:30:36.478Z,4.53
2023-04-25T05:33:18.040Z,5.13
2023-04-25T05:35:46.168Z,4.63
2023-04-25T05:38:13.650Z,4.35
2023-04-25T05:40:59.161Z,4.80
2023-04-25T05:43:39.692Z,4.75
2023-04-25T05:46:39.146Z,4.20
2023-04-25T05:49:22.274Z,3.60
2023-04-25T05:52:19.148Z,12.60
2023-04-25T05:55:09.189Z,5.57
2023-04-25T05:57:36.366Z,21.25
2023-04-25T06:00:04.255Z,38.78
2023-04-25T06:02:49.315Z,23.67
2023-04-25T06:05:16.908Z,6.22
2023-04-25T06:07:45.755Z,5.32
2023-04-25T06:10:12.741Z,4.45
2023-04-25T06:12:39.637Z,4.35
2023-04-25T06:15:20.130Z,4.47
2023-04-25T06:17:54.269Z,4.70
2023-04-25T06:20:24.257Z,3.63
2023-04-25T06:22:53.642Z,4.30
2023-04-25T06:25:22.794Z,4.05
2023-04-25T06:27:49.775Z,4.00
2023-04-25T06:30:19.414Z,4.93
2023-04-25T06:32:46.647Z,4.30
2023-04-25T06:35:14.469Z,4.05
2023-04-25T06:37:41.661Z,4.13
2023-04-25T06:40:09.365Z,4.40
2023-04-25T06:42:36.433Z,4.40
2023-04-25T06:45:23.340Z,5.13
2023-04-25T06:47:50.601Z,4.00
2023-04-25T06:50:18.222Z,5.30
2023-04-25T06:52:45.385Z,4.23
2023-04-25T06:55:12.367Z,4.32
2023-04-25T06:57:57.525Z,4.38
2023-04-25T07:00:53.671Z,3.63
2023-04-25T07:03:23.721Z,3.80
2023-04-25T07:05:53.376Z,3.77
2023-04-25T07:08:21.673Z,4.18
2023-04-25T07:10:49.880Z,3.92
2023-04-25T07:13:17.207Z,3.38
2023-04-25T07:15:45.483Z,3.70
2023-04-25T07:18:13.433Z,3.77
2023-04-25T07:20:40.611Z,3.45
2023-04-25T07:23:07.691Z,3.53
2023-04-25T07:25:36.149Z,3.70
2023-04-25T07:28:03.732Z,3.60
2023-04-25T07:30:30.969Z,3.63
2023-04-25T07:33:00.162Z,4.20
2023-04-25T07:35:27.432Z,4.20
2023-04-25T07:37:54.395Z,3.70
2023-04-25T07:40:21.443Z,3.92
2023-04-25T07:42:55.853Z,3.50
2023-04-25T07:45:33.504Z,3.22
2023-04-25T07:48:01.425Z,3.33
2023-04-25T07:50:30.870Z,3.38
2023-04-25T07:52:58.102Z,3.38
2023-04-25T07:55:31.555Z,2.90
2023-04-25T07:58:12.847Z,3.47
2023-04-25T08:00:42.718Z,3.30
2023-04-25T08:03:30.160Z,3.65
2023-04-25T08:05:59.043Z,4.13
2023-04-25T08:08:28.906Z,3.60
2023-04-25T08:10:56.445Z,7.22
2023-04-25T08:13:23.356Z,5.80
2023-04-25T08:15:50.843Z,5.43
2023-04-25T08:18:18.141Z,3.58
2023-04-25T08:20:46.925Z,3.83
2023-04-25T08:23:15.436Z,3.55
2023-04-25T08:25:53.105Z,3.65
2023-04-25T08:28:24.735Z,3.85
2023-04-25T08:30:52.191Z,3.63
2023-04-25T08:33:20.027Z,3.40
2023-04-25T08:36:12.121Z,3.40
2023-04-25T08:38:39.190Z,3.40
2023-04-25T08:41:09.400Z,3.70
2023-04-25T08:43:36.777Z,3.38
2023-04-25T08:46:04.637Z,2.73
2023-04-25T08:48:41.646Z,5.35
2023-04-25T08:53:43.847Z,3.13
2023-04-25T08:56:14.326Z,3.20
2023-04-25T08:58:41.800Z,3.10
2023-04-25T09:01:09.071Z,3.25
2023-04-25T09:03:45.700Z,2.92
2023-04-25T09:06:13.088Z,2.78
2023-04-25T09:08:41.625Z,2.58
2023-04-25T09:11:08.829Z,2.70
2023-04-25T09:13:35.894Z,2.60
2023-04-25T09:16:23.283Z,2.70
2023-04-25T09:19:39.754Z,1.80
2023-04-25T09:22:19.382Z,2.33
2023-04-25T09:24:47.232Z,2.40
2023-04-25T09:27:20.767Z,2.35
2023-04-25T09:30:03.068Z,2.42
2023-04-25T09:32:49.988Z,2.50
2023-04-25T09:35:27.569Z,2.20
2023-04-25T09:37:57.119Z,2.80
2023-04-25T09:40:52.913Z,1.75
2023-04-25T09:43:30.879Z,1.73
2023-04-25T09:46:00.089Z,1.80
2023-04-25T09:48:30.069Z,1.77
2023-04-25T09:51:11.659Z,2.37
2023-04-25T09:53:41.117Z,1.60
2023-04-25T09:56:17.490Z,1.80
2023-04-25T09:58:44.442Z,2.83
2023-04-25T10:01:12.072Z,2.35
2023-04-25T10:03:56.536Z,2.10
2023-04-25T10:06:38.561Z,2.17
2023-04-25T10:09:08.796Z,2.10
2023-04-25T10:11:37.870Z,2.00
2023-04-25T10:14:06.398Z,2.92
2023-04-25T10:16:34.400Z,2.07
2023-04-25T10:19:02.032Z,2.05
2023-04-25T10:21:31.587Z,2.30
2023-04-25T10:23:58.942Z,2.60
2023-04-25T10:26:26.521Z,3.47
2023-04-25T10:28:58.489Z,2.43
2023-04-25T10:31:26.013Z,2.45
2023-04-25T10:33:53.557Z,2.70
2023-04-25T10:36:23.552Z,2.80
2023-04-25T10:38:52.112Z,2.42
2023-04-25T10:41:20.780Z,2.77
2023-04-25T10:43:49.147Z,2.40
2023-04-25T10:46:20.641Z,2.58
2023-04-25T10:49:04.522Z,3.22
2023-04-25T10:51:53.800Z,2.70
2023-04-25T10:54:26.205Z,2.67
2023-04-25T10:56:54.330Z,2.88
2023-04-25T10:59:25.988Z,3.65
2023-04-25T11:01:55.775Z,2.45
2023-04-25T11:04:34.917Z,3.03
2023-04-25T11:07:11.572Z,2.47
2023-04-25T11:09:42.252Z,2.58
2023-04-25T11:12:10.548Z,2.30
2023-04-25T11:14:37.658Z,2.13
2023-04-25T11:17:06.751Z,2.50
2023-04-25T11:19:33.819Z,2.43
2023-04-25T11:22:02.415Z,2.50
2023-04-25T11:24:30.862Z,2.30
2023-04-25T11:27:25.852Z,2.22
2023-04-25T11:29:52.906Z,2.30
2023-04-25T11:32:21.469Z,2.27
2023-04-25T11:34:48.706Z,1.75
2023-04-25T11:37:16.009Z,2.72
2023-04-25T11:39:49.257Z,2.25
2023-04-25T11:42:16.518Z,2.15
2023-04-25T11:44:43.852Z,2.20
2023-04-25T11:47:10.909Z,2.38
2023-04-25T11:49:38.067Z,2.65
2023-04-25T11:52:08.562Z,2.58
2023-04-25T11:54:38.920Z,2.90
2023-04-25T11:57:05.988Z,2.57
2023-04-25T11:59:32.995Z,2.17
2023-04-25T12:02:02.700Z,2.45
2023-04-25T12:04:32.006Z,2.10
2023-04-25T12:07:01.620Z,2.72
2023-04-25T12:09:36.485Z,2.30
2023-04-25T12:12:05.445Z,2.33
2023-04-25T12:14:34.766Z,2.47
2023-04-25T12:17:03.841Z,2.58
2023-04-25T12:19:37.218Z,2.33
2023-04-25T12:22:12.263Z,3.00
2023-04-25T12:24:39.635Z,2.78
2023-04-25T12:27:09.409Z,2.80
2023-04-25T12:29:48.408Z,3.05
2023-04-25T12:32:17.117Z,3.35
2023-04-25T12:34:44.518Z,3.80
2023-04-25T12:37:15.616Z,3.10
2023-04-25T12:39:42.678Z,3.00
2023-04-25T12:42:12.708Z,3.40
2023-04-25T12:44:41.005Z,2.78
2023-04-25T12:47:08.358Z,3.33
2023-04-25T12:49:35.914Z,3.50
2023-04-25T12:52:03.067Z,3.00
2023-04-25T12:54:30.040Z,3.42
2023-04-25T12:56:57.430Z,3.33
2023-04-25T12:59:24.479Z,2.67
2023-04-25T13:01:51.467Z,3.08
2023-04-25T13:04:18.864Z,3.60
2023-04-25T13:06:46.167Z,3.53
2023-04-25T13:11:27.811Z,3.45
2023-04-25T13:12:00.369Z,3.40
2023-04-25T13:14:27.609Z,3.42
2023-04-25T13:16:55.415Z,3.20
2023-04-25T13:19:22.772Z,3.55
2023-04-25T13:21:49.857Z,3.50
2023-04-25T13:24:16.854Z,3.47
2023-04-25T13:26:44.354Z,3.40
2023-04-25T13:29:11.589Z,3.40
2023-04-25T13:31:38.674Z,3.25
2023-04-25T13:34:05.877Z,3.80
2023-04-25T13:36:32.991Z,3.20
2023-04-25T13:38:59.975Z,3.15
2023-04-25T13:41:27.003Z,3.15
2023-04-25T13:43:54.711Z,3.30
2023-04-25T13:46:41.024Z,3.60
2023-04-25T13:49:12.681Z,3.37
2023-04-25T13:51:41.355Z,2.70
2023-04-25T13:54:08.636Z,4.10
2023-04-25T13:56:36.027Z,9.27
2023-04-25T13:59:03.099Z,2.78
2023-04-25T14:01:32.257Z,3.30
2023-04-25T14:03:59.349Z,5.50
2023-04-25T14:06:26.963Z,3.40
2023-04-25T14:08:54.602Z,3.15
2023-04-25T14:11:21.955Z,2.90
2023-04-25T14:13:50.614Z,2.67
2023-04-25T14:16:18.409Z,2.88
2023-04-25T14:18:49.650Z,2.67
2023-04-25T14:21:16.701Z,3.72
2023-04-25T14:23:47.824Z,2.70
2023-04-25T14:26:16.063Z,2.57
2023-04-25T14:28:43.248Z,3.78
2023-04-25T14:31:13.247Z,3.22
2023-04-25T14:33:43.260Z,2.72
2023-04-25T14:36:12.082Z,2.67
2023-04-25T14:38:39.064Z,3.10
2023-04-25T14:41:06.359Z,2.40
2023-04-25T14:43:33.394Z,2.47
2023-04-25T14:46:00.438Z,2.97
2023-04-25T14:48:27.468Z,3.13
2023-04-25T14:50:54.493Z,2.40
2023-04-25T14:53:21.593Z,2.30
2023-04-25T14:55:49.236Z,2.70
2023-04-25T14:58:16.821Z,2.88
2023-04-25T15:00:47.897Z,2.95
2023-04-25T15:03:15.402Z,3.57
2023-04-25T15:05:42.910Z,3.95
2023-04-25T15:08:11.458Z,3.50
2023-04-25T15:10:38.626Z,3.80
2023-04-25T15:13:05.799Z,3.17
2023-04-25T15:15:32.808Z,3.60
2023-04-25T15:17:59.860Z,2.90
2023-04-25T15:20:27.981Z,3.58
2023-04-25T15:22:55.636Z,3.60
2023-04-25T15:25:22.901Z,3.88
2023-04-25T15:27:52.638Z,3.80
2023-04-25T15:30:20.585Z,3.78
2023-04-25T15:32:48.308Z,4.22
2023-04-25T15:35:16.290Z,2.83
2023-04-25T15:37:43.607Z,3.72
2023-04-25T15:40:11.241Z,3.47
2023-04-25T15:42:39.581Z,3.20
2023-04-25T15:45:08.585Z,3.72
2023-04-25T15:47:36.411Z,4.28
2023-04-25T15:50:05.191Z,4.82
2023-04-25T15:52:32.551Z,4.70
2023-04-25T15:55:04.650Z,6.60
2023-04-25T15:57:33.880Z,7.70
2023-04-25T16:00:01.468Z,8.05
2023-04-25T16:02:39.989Z,7.13
2023-04-25T16:05:07.849Z,6.90
2023-04-25T16:07:35.663Z,6.70
2023-04-25T16:10:02.788Z,7.78
2023-04-25T16:12:31.151Z,10.65
2023-04-25T16:14:58.420Z,7.50
2023-04-25T16:17:26.382Z,5.97
2023-04-25T16:19:55.846Z,6.43
2023-04-25T16:22:22.884Z,6.70
2023-04-25T16:24:51.186Z,6.85
2023-04-25T16:27:18.232Z,6.40
2023-04-25T16:29:45.159Z,6.17
2023-04-25T16:32:13.359Z,6.65
2023-04-25T16:34:40.282Z,7.15
2023-04-25T16:37:07.303Z,7.03
2023-04-25T16:39:34.670Z,7.40
2023-04-25T16:42:03.468Z,7.20
2023-04-25T16:44:31.730Z,7.65
2023-04-25T16:46:58.845Z,7.55
2023-04-25T16:49:26.484Z,7.80
2023-04-25T16:51:53.696Z,7.15
2023-04-25T16:54:20.897Z,6.17
2023-04-25T16:56:47.820Z,8.82
2023-04-25T16:59:14.823Z,8.77
2023-04-25T17:01:41.854Z,6.80
2023-04-25T17:04:08.955Z,7.25
2023-04-25T17:06:36.130Z,6.10
2023-04-25T17:09:03.324Z,7.55
2023-04-25T17:11:30.590Z,7.28
2023-04-25T17:13:57.888Z,7.03
2023-04-25T17:16:38.294Z,6.65
2023-04-25T17:19:06.424Z,6.10
2023-04-25T17:21:33.541Z,7.07
2023-04-25T17:24:00.634Z,7.20
2023-04-25T17:26:27.747Z,7.68
2023-04-25T17:28:55.001Z,7.22
2023-04-25T17:31:23.850Z,7.23
2023-04-25T17:33:51.141Z,7.80
2023-04-25T17:36:18.445Z,8.18
2023-04-25T17:38:45.440Z,7.97
2023-04-25T17:41:14.330Z,8.40
2023-04-25T17:43:41.490Z,7.13
2023-04-25T17:46:08.716Z,8.32
2023-04-25T17:48:40.907Z,8.88
2023-04-25T17:51:09.187Z,8.60
2023-04-25T17:53:36.712Z,9.02
2023-04-25T17:56:05.256Z,8.93
2023-04-25T17:58:34.395Z,9.80
2023-04-25T18:01:01.704Z,9.85
2023-04-25T18:03:31.753Z,9.32
2023-04-25T18:05:58.925Z,9.43
2023-04-25T18:08:25.917Z,9.20
2023-04-25T18:10:53.300Z,8.50
2023-04-25T18:13:20.275Z,9.05
2023-04-25T18:15:47.285Z,9.63
2023-04-25T18:18:20.413Z,10.93
2023-04-25T18:20:47.486Z,9.27
2023-04-25T18:23:14.395Z,8.90
2023-04-25T18:25:41.929Z,8.25
2023-04-25T18:28:11.797Z,8.32
2023-04-25T18:30:38.950Z,8.23
2023-04-25T18:33:05.965Z,8.23
2023-04-25T18:35:32.998Z,8.70
2023-04-25T18:37:59.948Z,9.55
2023-04-25T18:40:27.019Z,8.82
2023-04-25T18:42:53.976Z,8.70
2023-04-25T18:45:21.064Z,8.40
2023-04-25T18:47:48.123Z,8.75
2023-04-25T18:50:15.580Z,8.30
2023-04-25T18:52:43.227Z,9.43
2023-04-25T18:55:10.696Z,9.02
2023-04-25T18:57:40.845Z,8.83
2023-04-25T19:00:09.172Z,9.73
2023-04-25T19:02:37.232Z,9.07
2023-04-25T19:05:04.665Z,8.43
2023-04-25T19:07:33.252Z,8.70
2023-04-25T19:10:00.330Z,8.50
2023-04-25T19:12:27.290Z,8.90
2023-04-25T19:14:55.556Z,8.82
2023-04-25T19:17:23.503Z,8.13
2023-04-25T19:19:50.870Z,9.00
2023-04-25T19:22:18.083Z,9.40
2023-04-25T19:24:47.219Z,9.68
2023-04-25T19:27:17.472Z,8.93
2023-04-25T19:29:48.272Z,9.00
2023-04-25T19:32:15.662Z,9.48
2023-04-25T19:34:42.690Z,8.80
2023-04-25T19:37:09.842Z,8.63
2023-04-25T19:39:36.992Z,8.40
2023-04-25T19:42:04.449Z,8.55
2023-04-25T19:44:31.472Z,8.93
2023-04-25T19:46:59.941Z,8.50
2023-04-25T19:49:27.207Z,8.05
2023-04-25T19:51:59.106Z,8.10
2023-04-25T19:54:28.911Z,7.22
2023-04-25T19:56:56.243Z,7.60
2023-04-25T19:59:23.241Z,5.87
2023-04-25T20:01:50.387Z,5.30
2023-04-25T20:04:19.758Z,4.82
2023-04-25T20:07:21.998Z,4.22
2023-04-25T20:09:49.189Z,3.70
2023-04-25T20:12:16.776Z,3.77
2023-04-25T20:14:45.140Z,3.67
2023-04-25T20:17:12.702Z,3.75
2023-04-25T20:19:42.249Z,3.60
2023-04-25T20:22:09.226Z,3.20
2023-04-25T20:25:14.258Z,3.57
2023-04-25T20:27:46.485Z,3.42
2023-04-25T20:30:15.530Z,3.63
2023-04-25T20:32:45.363Z,3.35
2023-04-25T20:35:13.683Z,3.33
2023-04-25T20:37:40.809Z,3.43
2023-04-25T20:40:10.017Z,3.42
2023-04-25T20:42:39.797Z,3.97
2023-04-25T20:45:07.992Z,4.47
2023-04-25T20:47:35.741Z,3.75
2023-04-25T20:50:05.960Z,4.40
2023-04-25T20:52:33.940Z,4.65
2023-04-25T20:55:00.984Z,4.22
2023-04-25T20:57:29.251Z,5.05
2023-04-25T20:59:57.319Z,5.45
2023-04-25T21:02:24.572Z,4.50
2023-04-25T21:04:51.868Z,5.50
2023-04-25T21:07:19.305Z,4.13
2023-04-25T21:09:46.269Z,3.70
2023-04-25T21:12:13.324Z,5.20
2023-04-25T21:14:40.243Z,3.67
2023-04-25T21:17:07.348Z,4.20
2023-04-25T21:19:34.362Z,3.85
2023-04-25T21:22:02.392Z,3.95
2023-04-25T21:24:31.227Z,4.10
2023-04-25T21:26:58.235Z,3.63
2023-04-25T21:29:25.136Z,4.10
2023-04-25T21:31:53.015Z,3.97
2023-04-25T21:34:19.990Z,3.90
2023-04-25T21:36:46.993Z,3.20
2023-04-25T21:39:15.036Z,3.97
2023-04-25T21:41:44.410Z,3.85
2023-04-25T21:44:12.612Z,3.50
2023-04-25T21:46:39.688Z,3.88
2023-04-25T21:49:07.093Z,3.75
2023-04-25T21:51:34.317Z,3.40
2023-04-25T21:54:05.321Z,3.75
2023-04-25T21:56:33.144Z,3.67
2023-04-25T21:59:00.164Z,3.78
2023-04-25T22:01:28.477Z,3.45
2023-04-25T22:03:55.816Z,3.10
2023-04-25T22:06:22.922Z,3.67
2023-04-25T22:08:50.153Z,3.60
2023-04-25T22:11:17.426Z,3.05
2023-04-25T22:13:45.489Z,3.40
2023-04-25T22:16:12.670Z,3.57
2023-04-25T22:18:40.595Z,3.10
